sensor_id;sensor_type;location;lat;lon;timestamp;temperature;humidity
4411;DHT22;2218;51.408;7.208;2023-03-17T00:01:14;19.20;28.40
4411;DHT22;2218;51.408;7.208;2023-03-17T00:03:44;19.10;28.30
4411;DHT22;2218;51.408;7.208;2023-03-17T00:06:15;19.10;28.30
4411;DHT22;2218;51.408;7.208;2023-03-17T00:08:45;19.10;28.40
4411;DHT22;2218;51.408;7.208;2023-03-17T00:11:13;19.10;28.30
4411;DHT22;2218;51.408;7.208;2023-03-17T00:13:42;19.10;28.30
4411;DHT22;2218;51.408;7.208;2023-03-17T00:16:16;19.10;28.30
4411;DHT22;2218;51.408;7.208;2023-03-17T00:18:47;19.10;28.30
4411;DHT22;2218;51.408;7.208;2023-03-17T00:21:18;19.10;28.30
4411;DHT22;2218;51.408;7.208;2023-03-17T00:23:49;19.10;28.40
4411;DHT22;2218;51.408;7.208;2023-03-17T00:26:17;19.10;28.40
4411;DHT22;2218;51.408;7.208;2023-03-17T00:28:45;19.10;28.40
4411;DHT22;2218;51.408;7.208;2023-03-17T00:31:16;19.10;28.40
4411;DHT22;2218;51.408;7.208;2023-03-17T00:33:46;19.10;28.40
4411;DHT22;2218;51.408;7.208;2023-03-17T00:36:18;19.10;28.40
4411;DHT22;2218;51.408;7.208;2023-03-17T00:38:47;19.10;28.40
4411;DHT22;2218;51.408;7.208;2023-03-17T00:41:14;19.10;28.40
4411;DHT22;2218;51.408;7.208;2023-03-17T00:43:43;19.10;28.40
4411;DHT22;2218;51.408;7.208;2023-03-17T00:46:12;19.10;28.40
4411;DHT22;2218;51.408;7.208;2023-03-17T00:48:42;19.10;28.40
4411;DHT22;2218;51.408;7.208;2023-03-17T00:51:11;19.10;28.40
4411;DHT22;2218;51.408;7.208;2023-03-17T00:53:39;19.10;28.40
4411;DHT22;2218;51.408;7.208;2023-03-17T00:56:11;19.10;28.40
4411;DHT22;2218;51.408;7.208;2023-03-17T00:58:40;19.10;28.40
4411;DHT22;2218;51.408;7.208;2023-03-17T01:01:08;19.10;28.40
4411;DHT22;2218;51.408;7.208;2023-03-17T01:03:35;19.10;28.40
4411;DHT22;2218;51.408;7.208;2023-03-17T01:06:07;19.00;28.40
4411;DHT22;2218;51.408;7.208;2023-03-17T01:08:37;19.10;28.40
4411;DHT22;2218;51.408;7.208;2023-03-17T01:11:09;19.00;28.30
4411;DHT22;2218;51.408;7.208;2023-03-17T01:13:40;19.00;28.40
4411;DHT22;2218;51.408;7.208;2023-03-17T01:16:09;19.00;28.40
4411;DHT22;2218;51.408;7.208;2023-03-17T01:18:37;19.00;28.40
4411;DHT22;2218;51.408;7.208;2023-03-17T01:21:06;19.00;28.40
4411;DHT22;2218;51.408;7.208;2023-03-17T01:23:34;19.00;28.40
4411;DHT22;2218;51.408;7.208;2023-03-17T01:26:01;19.00;28.40
4411;DHT22;2218;51.408;7.208;2023-03-17T01:28:28;19.00;28.40
4411;DHT22;2218;51.408;7.208;2023-03-17T01:30:55;19.00;28.40
4411;DHT22;2218;51.408;7.208;2023-03-17T01:33:22;19.00;28.40
4411;DHT22;2218;51.408;7.208;2023-03-17T01:35:50;19.00;28.40
4411;DHT22;2218;51.408;7.208;2023-03-17T01:38:18;19.00;28.40
4411;DHT22;2218;51.408;7.208;2023-03-17T01:40:48;19.00;28.40
4411;DHT22;2218;51.408;7.208;2023-03-17T01:43:19;18.90;28.30
4411;DHT22;2218;51.408;7.208;2023-03-17T01:46:22;19.00;28.40
4411;DHT22;2218;51.408;7.208;2023-03-17T01:48:59;19.00;28.40
4411;DHT22;2218;51.408;7.208;2023-03-17T01:51:33;19.00;28.40
4411;DHT22;2218;51.408;7.208;2023-03-17T01:54:07;19.00;28.40
4411;DHT22;2218;51.408;7.208;2023-03-17T01:56:41;19.00;28.40
4411;DHT22;2218;51.408;7.208;2023-03-17T01:59:13;18.90;28.40
4411;DHT22;2218;51.408;7.208;2023-03-17T02:01:47;18.90;28.40
4411;DHT22;2218;51.408;7.208;2023-03-17T02:04:16;18.90;28.30
4411;DHT22;2218;51.408;7.208;2023-03-17T02:06:47;18.90;28.40
4411;DHT22;2218;51.408;7.208;2023-03-17T02:09:17;18.90;28.40
4411;DHT22;2218;51.408;7.208;2023-03-17T02:11:44;18.90;28.40
4411;DHT22;2218;51.408;7.208;2023-03-17T02:14:12;18.90;28.40
4411;DHT22;2218;51.408;7.208;2023-03-17T02:16:39;18.90;28.40
4411;DHT22;2218;51.408;7.208;2023-03-17T02:19:07;18.90;28.40
4411;DHT22;2218;51.408;7.208;2023-03-17T02:21:40;18.90;28.40
4411;DHT22;2218;51.408;7.208;2023-03-17T02:24:13;18.90;28.40
4411;DHT22;2218;51.408;7.208;2023-03-17T02:26:47;18.90;28.40
4411;DHT22;2218;51.408;7.208;2023-03-17T02:29:18;18.90;28.40
4411;DHT22;2218;51.408;7.208;2023-03-17T02:31:46;18.90;28.40
4411;DHT22;2218;51.408;7.208;2023-03-17T02:34:13;18.90;28.40
4411;DHT22;2218;51.408;7.208;2023-03-17T02:36:42;18.90;28.40
4411;DHT22;2218;51.408;7.208;2023-03-17T02:39:10;18.90;28.40
4411;DHT22;2218;51.408;7.208;2023-03-17T02:41:38;18.90;28.40
4411;DHT22;2218;51.408;7.208;2023-03-17T02:44:05;18.90;28.40
4411;DHT22;2218;51.408;7.208;2023-03-17T02:46:32;18.90;28.40
4411;DHT22;2218;51.408;7.208;2023-03-17T02:48:59;18.90;28.40
4411;DHT22;2218;51.408;7.208;2023-03-17T02:51:27;18.90;28.40
4411;DHT22;2218;51.408;7.208;2023-03-17T02:53:56;18.90;28.40
4411;DHT22;2218;51.408;7.208;2023-03-17T02:56:23;18.90;28.40
4411;DHT22;2218;51.408;7.208;2023-03-17T02:58:50;18.90;28.40
4411;DHT22;2218;51.408;7.208;2023-03-17T03:01:17;18.90;28.40
4411;DHT22;2218;51.408;7.208;2023-03-17T03:03:45;18.90;28.40
4411;DHT22;2218;51.408;7.208;2023-03-17T03:06:13;18.90;28.40
4411;DHT22;2218;51.408;7.208;2023-03-17T03:08:40;18.80;28.40
4411;DHT22;2218;51.408;7.208;2023-03-17T03:11:09;18.90;28.40
4411;DHT22;2218;51.408;7.208;2023-03-17T03:13:36;18.90;28.40
4411;DHT22;2218;51.408;7.208;2023-03-17T03:16:04;18.90;28.40
4411;DHT22;2218;51.408;7.208;2023-03-17T03:18:31;18.80;28.40
4411;DHT22;2218;51.408;7.208;2023-03-17T03:20:58;18.90;28.40
4411;DHT22;2218;51.408;7.208;2023-03-17T03:23:25;18.90;28.40
4411;DHT22;2218;51.408;7.208;2023-03-17T03:25:52;18.90;28.40
4411;DHT22;2218;51.408;7.208;2023-03-17T03:28:21;18.90;28.40
4411;DHT22;2218;51.408;7.208;2023-03-17T03:30:49;18.90;28.40
4411;DHT22;2218;51.408;7.208;2023-03-17T03:33:16;18.90;28.40
4411;DHT22;2218;51.408;7.208;2023-03-17T03:35:43;18.90;28.40
4411;DHT22;2218;51.408;7.208;2023-03-17T03:38:11;18.90;28.40
4411;DHT22;2218;51.408;7.208;2023-03-17T03:40:39;18.90;28.40
4411;DHT22;2218;51.408;7.208;2023-03-17T03:43:05;18.90;28.40
4411;DHT22;2218;51.408;7.208;2023-03-17T03:45:34;18.90;28.30
4411;DHT22;2218;51.408;7.208;2023-03-17T03:48:01;18.90;28.40
4411;DHT22;2218;51.408;7.208;2023-03-17T03:50:28;18.90;28.40
4411;DHT22;2218;51.408;7.208;2023-03-17T03:52:55;18.90;28.30
4411;DHT22;2218;51.408;7.208;2023-03-17T03:55:22;18.90;28.40
4411;DHT22;2218;51.408;7.208;2023-03-17T03:57:49;18.90;28.40
4411;DHT22;2218;51.408;7.208;2023-03-17T04:00:17;18.90;28.40
4411;DHT22;2218;51.408;7.208;2023-03-17T04:02:46;18.90;28.40
4411;DHT22;2218;51.408;7.208;2023-03-17T04:05:13;18.90;28.40
4411;DHT22;2218;51.408;7.208;2023-03-17T04:07:42;18.90;28.40
4411;DHT22;2218;51.408;7.208;2023-03-17T04:10:10;18.90;28.40
4411;DHT22;2218;51.408;7.208;2023-03-17T04:12:38;18.90;28.40
4411;DHT22;2218;51.408;7.208;2023-03-17T04:15:06;18.90;28.40
4411;DHT22;2218;51.408;7.208;2023-03-17T04:17:36;18.90;28.40
4411;DHT22;2218;51.408;7.208;2023-03-17T04:20:05;18.90;28.40
4411;DHT22;2218;51.408;7.208;2023-03-17T04:22:32;18.90;28.40
4411;DHT22;2218;51.408;7.208;2023-03-17T04:25:00;18.90;28.40
4411;DHT22;2218;51.408;7.208;2023-03-17T04:27:27;18.90;28.40
4411;DHT22;2218;51.408;7.208;2023-03-17T04:29:54;18.90;28.40
4411;DHT22;2218;51.408;7.208;2023-03-17T04:32:21;18.90;28.30
4411;DHT22;2218;51.408;7.208;2023-03-17T04:34:47;18.90;28.40
4411;DHT22;2218;51.408;7.208;2023-03-17T04:37:16;18.90;28.40
4411;DHT22;2218;51.408;7.208;2023-03-17T04:39:43;18.90;28.40
4411;DHT22;2218;51.408;7.208;2023-03-17T04:42:11;18.90;28.30
4411;DHT22;2218;51.408;7.208;2023-03-17T04:44:38;18.90;28.40
4411;DHT22;2218;51.408;7.208;2023-03-17T04:47:07;18.90;28.30
4411;DHT22;2218;51.408;7.208;2023-03-17T04:49:34;18.90;28.40
4411;DHT22;2218;51.408;7.208;2023-03-17T04:52:01;18.90;28.40
4411;DHT22;2218;51.408;7.208;2023-03-17T04:54:30;18.90;28.30
4411;DHT22;2218;51.408;7.208;2023-03-17T04:56:56;18.90;28.80
4411;DHT22;2218;51.408;7.208;2023-03-17T04:59:23;18.90;28.40
4411;DHT22;2218;51.408;7.208;2023-03-17T05:01:51;18.90;28.30
4411;DHT22;2218;51.408;7.208;2023-03-17T05:04:18;18.90;28.30
4411;DHT22;2218;51.408;7.208;2023-03-17T05:06:45;18.90;28.30
4411;DHT22;2218;51.408;7.208;2023-03-17T05:09:11;18.90;28.30
4411;DHT22;2218;51.408;7.208;2023-03-17T05:11:40;18.90;28.20
4411;DHT22;2218;51.408;7.208;2023-03-17T05:14:07;18.90;28.10
4411;DHT22;2218;51.408;7.208;2023-03-17T05:16:34;19.00;28.10
4411;DHT22;2218;51.408;7.208;2023-03-17T05:19:01;19.00;28.10
4411;DHT22;2218;51.408;7.208;2023-03-17T05:21:28;19.00;28.10
4411;DHT22;2218;51.408;7.208;2023-03-17T05:23:55;19.00;28.10
4411;DHT22;2218;51.408;7.208;2023-03-17T05:26:22;19.00;28.10
4411;DHT22;2218;51.408;7.208;2023-03-17T05:28:50;19.00;28.00
4411;DHT22;2218;51.408;7.208;2023-03-17T05:31:17;19.10;28.00
4411;DHT22;2218;51.408;7.208;2023-03-17T05:33:44;19.10;28.00
4411;DHT22;2218;51.408;7.208;2023-03-17T05:36:13;19.10;28.00
4411;DHT22;2218;51.408;7.208;2023-03-17T05:38:41;19.10;28.00
4411;DHT22;2218;51.408;7.208;2023-03-17T05:41:09;19.10;27.90
4411;DHT22;2218;51.408;7.208;2023-03-17T05:43:36;19.10;27.90
4411;DHT22;2218;51.408;7.208;2023-03-17T05:46:05;19.10;27.90
4411;DHT22;2218;51.408;7.208;2023-03-17T05:48:32;19.10;27.80
4411;DHT22;2218;51.408;7.208;2023-03-17T05:51:00;19.20;27.90
4411;DHT22;2218;51.408;7.208;2023-03-17T05:53:27;19.20;27.90
4411;DHT22;2218;51.408;7.208;2023-03-17T05:55:54;19.20;27.80
4411;DHT22;2218;51.408;7.208;2023-03-17T05:58:21;19.20;27.90
4411;DHT22;2218;51.408;7.208;2023-03-17T06:00:48;19.20;27.80
4411;DHT22;2218;51.408;7.208;2023-03-17T06:03:17;19.20;27.80
4411;DHT22;2218;51.408;7.208;2023-03-17T06:05:44;19.30;27.80
4411;DHT22;2218;51.408;7.208;2023-03-17T06:08:11;19.30;27.80
4411;DHT22;2218;51.408;7.208;2023-03-17T06:10:38;19.30;27.80
4411;DHT22;2218;51.408;7.208;2023-03-17T06:13:05;19.30;27.80
4411;DHT22;2218;51.408;7.208;2023-03-17T06:15:32;19.30;27.80
4411;DHT22;2218;51.408;7.208;2023-03-17T06:18:01;19.30;27.80
4411;DHT22;2218;51.408;7.208;2023-03-17T06:20:31;19.30;27.80
4411;DHT22;2218;51.408;7.208;2023-03-17T06:22:58;19.30;27.70
4411;DHT22;2218;51.408;7.208;2023-03-17T06:25:26;19.30;27.70
4411;DHT22;2218;51.408;7.208;2023-03-17T06:27:53;19.30;27.80
4411;DHT22;2218;51.408;7.208;2023-03-17T06:30:21;19.30;27.80
4411;DHT22;2218;51.408;7.208;2023-03-17T06:32:48;19.30;27.80
4411;DHT22;2218;51.408;7.208;2023-03-17T06:35:15;19.30;27.80
4411;DHT22;2218;51.408;7.208;2023-03-17T06:37:43;19.30;27.70
4411;DHT22;2218;51.408;7.208;2023-03-17T06:40:11;19.40;27.70
4411;DHT22;2218;51.408;7.208;2023-03-17T06:42:39;19.30;27.70
4411;DHT22;2218;51.408;7.208;2023-03-17T06:45:07;19.40;27.70
4411;DHT22;2218;51.408;7.208;2023-03-17T06:47:35;19.40;27.70
4411;DHT22;2218;51.408;7.208;2023-03-17T06:50:02;19.50;27.80
4411;DHT22;2218;51.408;7.208;2023-03-17T06:52:30;19.50;27.80
4411;DHT22;2218;51.408;7.208;2023-03-17T06:54:58;19.50;27.80
4411;DHT22;2218;51.408;7.208;2023-03-17T06:57:25;19.50;27.80
4411;DHT22;2218;51.408;7.208;2023-03-17T06:59:52;19.50;27.60
4411;DHT22;2218;51.408;7.208;2023-03-17T07:02:20;19.60;27.70
4411;DHT22;2218;51.408;7.208;2023-03-17T07:04:47;19.60;27.70
4411;DHT22;2218;51.408;7.208;2023-03-17T07:07:14;19.60;27.80
4411;DHT22;2218;51.408;7.208;2023-03-17T07:09:41;19.60;27.80
4411;DHT22;2218;51.408;7.208;2023-03-17T07:12:10;19.60;27.70
4411;DHT22;2218;51.408;7.208;2023-03-17T07:14:37;19.70;27.90
4411;DHT22;2218;51.408;7.208;2023-03-17T07:17:05;19.70;27.70
4411;DHT22;2218;51.408;7.208;2023-03-17T07:19:32;19.70;27.80
4411;DHT22;2218;51.408;7.208;2023-03-17T07:21:59;19.80;27.90
4411;DHT22;2218;51.408;7.208;2023-03-17T07:24:26;19.80;27.90
4411;DHT22;2218;51.408;7.208;2023-03-17T07:26:53;19.80;27.90
4411;DHT22;2218;51.408;7.208;2023-03-17T07:29:21;19.80;27.80
4411;DHT22;2218;51.408;7.208;2023-03-17T07:31:48;19.80;27.80
4411;DHT22;2218;51.408;7.208;2023-03-17T07:34:15;19.80;27.90
4411;DHT22;2218;51.408;7.208;2023-03-17T07:36:42;19.90;27.90
4411;DHT22;2218;51.408;7.208;2023-03-17T07:39:09;19.90;27.90
4411;DHT22;2218;51.408;7.208;2023-03-17T07:41:37;19.90;27.90
4411;DHT22;2218;51.408;7.208;2023-03-17T07:44:08;19.90;27.90
4411;DHT22;2218;51.408;7.208;2023-03-17T07:46:37;19.90;28.00
4411;DHT22;2218;51.408;7.208;2023-03-17T07:49:04;19.90;27.90
4411;DHT22;2218;51.408;7.208;2023-03-17T07:51:30;19.90;28.00
4411;DHT22;2218;51.408;7.208;2023-03-17T07:53:57;19.90;28.10
4411;DHT22;2218;51.408;7.208;2023-03-17T07:56:28;19.90;28.10
4411;DHT22;2218;51.408;7.208;2023-03-17T07:58:56;19.90;28.10
4411;DHT22;2218;51.408;7.208;2023-03-17T08:01:24;19.90;28.00
4411;DHT22;2218;51.408;7.208;2023-03-17T08:03:53;19.90;28.10
4411;DHT22;2218;51.408;7.208;2023-03-17T08:06:21;19.90;28.20
4411;DHT22;2218;51.408;7.208;2023-03-17T08:08:49;19.90;28.20
4411;DHT22;2218;51.408;7.208;2023-03-17T08:11:17;19.90;28.20
4411;DHT22;2218;51.408;7.208;2023-03-17T08:13:44;19.90;28.30
4411;DHT22;2218;51.408;7.208;2023-03-17T08:16:12;19.90;28.30
4411;DHT22;2218;51.408;7.208;2023-03-17T08:18:39;19.90;28.40
4411;DHT22;2218;51.408;7.208;2023-03-17T08:21:07;19.90;28.40
4411;DHT22;2218;51.408;7.208;2023-03-17T08:23:35;19.90;28.50
4411;DHT22;2218;51.408;7.208;2023-03-17T08:26:03;19.90;28.50
4411;DHT22;2218;51.408;7.208;2023-03-17T08:28:30;19.90;28.50
4411;DHT22;2218;51.408;7.208;2023-03-17T08:31:09;19.90;29.00
4411;DHT22;2218;51.408;7.208;2023-03-17T08:33:39;19.90;28.60
4411;DHT22;2218;51.408;7.208;2023-03-17T08:36:09;19.90;28.60
4411;DHT22;2218;51.408;7.208;2023-03-17T08:38:38;19.90;28.60
4411;DHT22;2218;51.408;7.208;2023-03-17T08:41:08;19.90;28.70
4411;DHT22;2218;51.408;7.208;2023-03-17T08:43:38;19.90;28.70
4411;DHT22;2218;51.408;7.208;2023-03-17T08:46:09;19.90;28.80
4411;DHT22;2218;51.408;7.208;2023-03-17T08:48:40;19.90;28.80
4411;DHT22;2218;51.408;7.208;2023-03-17T08:51:08;19.90;28.80
4411;DHT22;2218;51.408;7.208;2023-03-17T08:53:35;19.90;28.90
4411;DHT22;2218;51.408;7.208;2023-03-17T08:56:03;19.90;28.90
4411;DHT22;2218;51.408;7.208;2023-03-17T08:58:31;19.90;28.90
4411;DHT22;2218;51.408;7.208;2023-03-17T09:01:00;19.90;28.90
4411;DHT22;2218;51.408;7.208;2023-03-17T09:03:28;19.90;29.00
4411;DHT22;2218;51.408;7.208;2023-03-17T09:05:57;19.90;29.00
4411;DHT22;2218;51.408;7.208;2023-03-17T09:08:26;19.90;28.90
4411;DHT22;2218;51.408;7.208;2023-03-17T09:10:53;19.90;28.90
4411;DHT22;2218;51.408;7.208;2023-03-17T09:13:21;19.90;28.90
4411;DHT22;2218;51.408;7.208;2023-03-17T09:15:48;19.90;29.00
4411;DHT22;2218;51.408;7.208;2023-03-17T09:18:15;19.90;28.90
4411;DHT22;2218;51.408;7.208;2023-03-17T09:20:42;19.90;29.00
4411;DHT22;2218;51.408;7.208;2023-03-17T09:23:10;19.90;28.90
4411;DHT22;2218;51.408;7.208;2023-03-17T09:25:39;19.90;28.90
4411;DHT22;2218;51.408;7.208;2023-03-17T09:28:08;19.90;28.90
4411;DHT22;2218;51.408;7.208;2023-03-17T09:30:39;19.90;29.00
4411;DHT22;2218;51.408;7.208;2023-03-17T09:33:07;19.90;29.10
4411;DHT22;2218;51.408;7.208;2023-03-17T09:35:34;19.90;29.10
4411;DHT22;2218;51.408;7.208;2023-03-17T09:38:01;19.90;29.10
4411;DHT22;2218;51.408;7.208;2023-03-17T09:40:31;19.80;29.00
4411;DHT22;2218;51.408;7.208;2023-03-17T09:43:09;19.80;29.00
4411;DHT22;2218;51.408;7.208;2023-03-17T09:45:48;19.80;29.00
4411;DHT22;2218;51.408;7.208;2023-03-17T09:48:36;19.80;29.00
4411;DHT22;2218;51.408;7.208;2023-03-17T09:51:12;19.80;29.00
4411;DHT22;2218;51.408;7.208;2023-03-17T09:53:48;19.90;29.10
4411;DHT22;2218;51.408;7.208;2023-03-17T09:56:20;19.80;29.00
4411;DHT22;2218;51.408;7.208;2023-03-17T09:58:52;19.90;29.10
4411;DHT22;2218;51.408;7.208;2023-03-17T10:01:23;19.80;29.10
4411;DHT22;2218;51.408;7.208;2023-03-17T10:03:51;19.80;29.10
4411;DHT22;2218;51.408;7.208;2023-03-17T10:06:32;19.80;29.20
4411;DHT22;2218;51.408;7.208;2023-03-17T10:09:09;19.80;29.20
4411;DHT22;2218;51.408;7.208;2023-03-17T10:11:51;19.80;29.20
4411;DHT22;2218;51.408;7.208;2023-03-17T10:14:48;19.80;29.30
4411;DHT22;2218;51.408;7.208;2023-03-17T10:17:21;19.90;29.20
4411;DHT22;2218;51.408;7.208;2023-03-17T10:19:55;19.80;29.30
4411;DHT22;2218;51.408;7.208;2023-03-17T10:22:29;19.90;29.50
4411;DHT22;2218;51.408;7.208;2023-03-17T10:25:09;19.80;29.40
4411;DHT22;2218;51.408;7.208;2023-03-17T10:27:40;19.80;29.40
4411;DHT22;2218;51.408;7.208;2023-03-17T10:30:15;19.80;29.50
4411;DHT22;2218;51.408;7.208;2023-03-17T10:32:45;19.90;29.50
4411;DHT22;2218;51.408;7.208;2023-03-17T10:35:14;19.80;29.50
4411;DHT22;2218;51.408;7.208;2023-03-17T10:37:45;19.90;29.70
4411;DHT22;2218;51.408;7.208;2023-03-17T10:40:21;19.90;29.70
4411;DHT22;2218;51.408;7.208;2023-03-17T10:43:00;19.90;29.70
4411;DHT22;2218;51.408;7.208;2023-03-17T10:45:34;19.90;29.70
4411;DHT22;2218;51.408;7.208;2023-03-17T10:48:06;19.90;30.10
4411;DHT22;2218;51.408;7.208;2023-03-17T10:50:36;19.90;29.80
4411;DHT22;2218;51.408;7.208;2023-03-17T10:53:08;19.90;30.20
4411;DHT22;2218;51.408;7.208;2023-03-17T10:55:48;19.90;29.80
4411;DHT22;2218;51.408;7.208;2023-03-17T10:58:19;19.90;29.80
4411;DHT22;2218;51.408;7.208;2023-03-17T11:00:56;19.90;29.80
4411;DHT22;2218;51.408;7.208;2023-03-17T11:03:29;19.90;29.90
4411;DHT22;2218;51.408;7.208;2023-03-17T11:06:01;19.90;29.90
4411;DHT22;2218;51.408;7.208;2023-03-17T11:08:34;19.90;29.90
4411;DHT22;2218;51.408;7.208;2023-03-17T11:11:06;19.90;29.90
4411;DHT22;2218;51.408;7.208;2023-03-17T11:13:35;19.90;29.90
4411;DHT22;2218;51.408;7.208;2023-03-17T11:16:17;19.90;29.90
4411;DHT22;2218;51.408;7.208;2023-03-17T11:18:49;19.90;29.90
4411;DHT22;2218;51.408;7.208;2023-03-17T11:21:22;19.90;29.90
4411;DHT22;2218;51.408;7.208;2023-03-17T11:23:56;19.90;29.90
4411;DHT22;2218;51.408;7.208;2023-03-17T11:26:42;19.90;29.90
4411;DHT22;2218;51.408;7.208;2023-03-17T11:29:23;19.90;29.90
4411;DHT22;2218;51.408;7.208;2023-03-17T11:32:03;19.90;29.90
4411;DHT22;2218;51.408;7.208;2023-03-17T11:35:02;19.90;29.90
4411;DHT22;2218;51.408;7.208;2023-03-17T11:38:18;20.00;29.90
4411;DHT22;2218;51.408;7.208;2023-03-17T11:44:11;19.90;29.90
4411;DHT22;2218;51.408;7.208;2023-03-17T11:46:52;19.90;29.90
4411;DHT22;2218;51.408;7.208;2023-03-17T11:49:32;19.90;29.90
4411;DHT22;2218;51.408;7.208;2023-03-17T11:52:07;19.90;30.30
4411;DHT22;2218;51.408;7.208;2023-03-17T11:54:51;20.00;30.00
4411;DHT22;2218;51.408;7.208;2023-03-17T11:57:26;19.90;30.00
4411;DHT22;2218;51.408;7.208;2023-03-17T11:59:59;19.90;29.90
4411;DHT22;2218;51.408;7.208;2023-03-17T12:02:40;20.00;30.00
4411;DHT22;2218;51.408;7.208;2023-03-17T12:05:17;19.90;30.00
4411;DHT22;2218;51.408;7.208;2023-03-17T12:07:51;19.90;30.00
4411;DHT22;2218;51.408;7.208;2023-03-17T12:10:24;20.00;30.00
4411;DHT22;2218;51.408;7.208;2023-03-17T12:13:01;20.00;30.00
4411;DHT22;2218;51.408;7.208;2023-03-17T12:15:36;20.00;30.00
4411;DHT22;2218;51.408;7.208;2023-03-17T12:18:12;20.00;30.00
4411;DHT22;2218;51.408;7.208;2023-03-17T12:20:50;19.90;30.00
4411;DHT22;2218;51.408;7.208;2023-03-17T12:23:28;20.00;30.00
4411;DHT22;2218;51.408;7.208;2023-03-17T12:26:04;20.00;30.00
4411;DHT22;2218;51.408;7.208;2023-03-17T12:28:43;20.00;30.10
4411;DHT22;2218;51.408;7.208;2023-03-17T12:31:19;20.00;30.10
4411;DHT22;2218;51.408;7.208;2023-03-17T12:33:56;20.00;30.00
4411;DHT22;2218;51.408;7.208;2023-03-17T12:36:31;20.00;30.10
4411;DHT22;2218;51.408;7.208;2023-03-17T12:39:05;20.00;30.10
4411;DHT22;2218;51.408;7.208;2023-03-17T12:41:58;20.00;30.10
4411;DHT22;2218;51.408;7.208;2023-03-17T12:44:54;20.00;30.10
4411;DHT22;2218;51.408;7.208;2023-03-17T12:48:01;20.00;30.10
4411;DHT22;2218;51.408;7.208;2023-03-17T12:50:51;20.00;30.20
4411;DHT22;2218;51.408;7.208;2023-03-17T12:53:55;20.00;30.20
4411;DHT22;2218;51.408;7.208;2023-03-17T12:56:26;20.00;30.20
4411;DHT22;2218;51.408;7.208;2023-03-17T12:58:58;20.00;30.20
4411;DHT22;2218;51.408;7.208;2023-03-17T13:01:30;20.00;30.20
4411;DHT22;2218;51.408;7.208;2023-03-17T13:04:14;20.00;30.20
4411;DHT22;2218;51.408;7.208;2023-03-17T13:06:45;20.00;30.20
4411;DHT22;2218;51.408;7.208;2023-03-17T13:09:40;20.00;30.20
4411;DHT22;2218;51.408;7.208;2023-03-17T13:15:58;20.00;30.20
4411;DHT22;2218;51.408;7.208;2023-03-17T13:18:49;20.00;30.30
4411;DHT22;2218;51.408;7.208;2023-03-17T13:21:26;20.00;30.20
4411;DHT22;2218;51.408;7.208;2023-03-17T13:23:57;20.00;30.30
4411;DHT22;2218;51.408;7.208;2023-03-17T13:26:56;20.00;30.30
4411;DHT22;2218;51.408;7.208;2023-03-17T13:29:38;20.00;30.30
4411;DHT22;2218;51.408;7.208;2023-03-17T13:32:36;20.00;30.40
4411;DHT22;2218;51.408;7.208;2023-03-17T13:35:24;20.00;30.40
4411;DHT22;2218;51.408;7.208;2023-03-17T13:38:15;20.00;30.50
4411;DHT22;2218;51.408;7.208;2023-03-17T13:41:16;20.00;30.40
4411;DHT22;2218;51.408;7.208;2023-03-17T13:44:10;20.00;30.50
4411;DHT22;2218;51.408;7.208;2023-03-17T13:46:47;20.00;30.50
4411;DHT22;2218;51.408;7.208;2023-03-17T13:49:26;20.00;30.50
4411;DHT22;2218;51.408;7.208;2023-03-17T13:52:00;20.00;30.60
4411;DHT22;2218;51.408;7.208;2023-03-17T13:54:39;20.00;30.50
4411;DHT22;2218;51.408;7.208;2023-03-17T13:57:21;20.00;30.60
4411;DHT22;2218;51.408;7.208;2023-03-17T14:00:03;20.00;30.60
4411;DHT22;2218;51.408;7.208;2023-03-17T14:02:47;20.00;30.60
4411;DHT22;2218;51.408;7.208;2023-03-17T14:05:21;20.00;30.60
4411;DHT22;2218;51.408;7.208;2023-03-17T14:07:55;20.00;30.60
4411;DHT22;2218;51.408;7.208;2023-03-17T14:10:27;20.00;30.60
4411;DHT22;2218;51.408;7.208;2023-03-17T14:12:59;20.00;30.60
4411;DHT22;2218;51.408;7.208;2023-03-17T14:15:33;20.00;31.10
4411;DHT22;2218;51.408;7.208;2023-03-17T14:18:15;20.00;30.60
4411;DHT22;2218;51.408;7.208;2023-03-17T14:20:51;20.00;30.70
4411;DHT22;2218;51.408;7.208;2023-03-17T14:23:18;20.00;30.60
4411;DHT22;2218;51.408;7.208;2023-03-17T14:25:46;20.00;30.70
4411;DHT22;2218;51.408;7.208;2023-03-17T14:28:16;20.00;30.70
4411;DHT22;2218;51.408;7.208;2023-03-17T14:30:52;20.00;30.70
4411;DHT22;2218;51.408;7.208;2023-03-17T14:33:22;20.00;30.70
4411;DHT22;2218;51.408;7.208;2023-03-17T14:35:55;20.00;30.70
4411;DHT22;2218;51.408;7.208;2023-03-17T14:38:25;20.00;30.80
4411;DHT22;2218;51.408;7.208;2023-03-17T14:41:00;20.00;30.80
4411;DHT22;2218;51.408;7.208;2023-03-17T14:43:29;20.00;30.80
4411;DHT22;2218;51.408;7.208;2023-03-17T14:46:00;20.00;30.80
4411;DHT22;2218;51.408;7.208;2023-03-17T14:48:31;20.00;30.80
4411;DHT22;2218;51.408;7.208;2023-03-17T14:51:00;20.00;30.80
4411;DHT22;2218;51.408;7.208;2023-03-17T14:53:31;20.00;30.90
4411;DHT22;2218;51.408;7.208;2023-03-17T14:56:00;20.00;30.90
4411;DHT22;2218;51.408;7.208;2023-03-17T14:58:30;20.00;30.90
4411;DHT22;2218;51.408;7.208;2023-03-17T15:01:04;20.00;30.90
4411;DHT22;2218;51.408;7.208;2023-03-17T15:03:38;20.00;30.90
4411;DHT22;2218;51.408;7.208;2023-03-17T15:06:20;20.00;30.90
4411;DHT22;2218;51.408;7.208;2023-03-17T15:08:49;20.00;30.90
4411;DHT22;2218;51.408;7.208;2023-03-17T15:11:27;20.00;31.00
4411;DHT22;2218;51.408;7.208;2023-03-17T15:14:04;20.00;31.00
4411;DHT22;2218;51.408;7.208;2023-03-17T15:16:45;20.00;31.00
4411;DHT22;2218;51.408;7.208;2023-03-17T15:19:20;20.00;31.00
4411;DHT22;2218;51.408;7.208;2023-03-17T15:21:48;20.00;31.00
4411;DHT22;2218;51.408;7.208;2023-03-17T15:24:35;20.00;31.10
4411;DHT22;2218;51.408;7.208;2023-03-17T15:27:06;20.00;31.10
4411;DHT22;2218;51.408;7.208;2023-03-17T15:29:40;20.00;31.10
4411;DHT22;2218;51.408;7.208;2023-03-17T15:32:14;20.00;31.10
4411;DHT22;2218;51.408;7.208;2023-03-17T15:34:44;20.00;31.20
4411;DHT22;2218;51.408;7.208;2023-03-17T15:37:16;20.00;31.70
4411;DHT22;2218;51.408;7.208;2023-03-17T15:39:46;20.00;31.20
4411;DHT22;2218;51.408;7.208;2023-03-17T15:42:15;20.00;31.20
4411;DHT22;2218;51.408;7.208;2023-03-17T15:44:43;20.00;31.20
4411;DHT22;2218;51.408;7.208;2023-03-17T15:47:13;20.00;31.20
4411;DHT22;2218;51.408;7.208;2023-03-17T15:49:41;20.00;31.20
4411;DHT22;2218;51.408;7.208;2023-03-17T15:52:14;20.00;31.20
4411;DHT22;2218;51.408;7.208;2023-03-17T15:54:42;20.00;31.30
4411;DHT22;2218;51.408;7.208;2023-03-17T15:57:10;20.00;31.30
4411;DHT22;2218;51.408;7.208;2023-03-17T15:59:38;20.00;31.30
4411;DHT22;2218;51.408;7.208;2023-03-17T16:02:25;20.00;31.40
4411;DHT22;2218;51.408;7.208;2023-03-17T16:04:54;20.00;31.30
4411;DHT22;2218;51.408;7.208;2023-03-17T16:07:22;20.00;31.30
4411;DHT22;2218;51.408;7.208;2023-03-17T16:09:50;20.00;31.40
4411;DHT22;2218;51.408;7.208;2023-03-17T16:12:17;20.00;31.30
4411;DHT22;2218;51.408;7.208;2023-03-17T16:14:44;20.00;31.40
4411;DHT22;2218;51.408;7.208;2023-03-17T16:17:18;20.00;31.40
4411;DHT22;2218;51.408;7.208;2023-03-17T16:19:49;20.00;31.40
4411;DHT22;2218;51.408;7.208;2023-03-17T16:22:34;20.00;31.40
4411;DHT22;2218;51.408;7.208;2023-03-17T16:25:16;20.00;31.40
4411;DHT22;2218;51.408;7.208;2023-03-17T16:27:46;20.00;31.40
4411;DHT22;2218;51.408;7.208;2023-03-17T16:30:15;20.00;31.50
4411;DHT22;2218;51.408;7.208;2023-03-17T16:32:45;20.00;31.40
4411;DHT22;2218;51.408;7.208;2023-03-17T16:35:14;20.00;31.40
4411;DHT22;2218;51.408;7.208;2023-03-17T16:37:43;20.00;31.50